createdAt,value
2019-02-22T00:01:26.257Z,9.80
2019-02-22T00:03:52.925Z,9.80
2019-02-22T00:06:19.579Z,9.90
2019-02-22T00:08:47.201Z,9.80
2019-02-22T00:11:14.046Z,9.70
2019-02-22T00:13:40.835Z,9.80
2019-02-22T00:16:07.616Z,9.70
2019-02-22T00:18:34.438Z,9.70
2019-02-22T00:21:01.127Z,9.90
2019-02-22T00:23:27.754Z,9.80
2019-02-22T00:25:54.763Z,9.80
2019-02-22T00:28:21.714Z,9.80
2019-02-22T00:30:48.465Z,9.90
2019-02-22T00:33:15.082Z,10.10
2019-02-22T00:35:41.870Z,10.00
2019-02-22T00:38:08.731Z,10.10
2019-02-22T00:40:35.501Z,10.20
2019-02-22T00:43:02.304Z,10.10
2019-02-22T00:45:29.111Z,10.20
2019-02-22T00:47:55.790Z,10.00
2019-02-22T00:50:22.418Z,10.00
2019-02-22T00:52:49.064Z,9.90
2019-02-22T00:55:15.842Z,9.90
2019-02-22T00:57:42.503Z,10.00
2019-02-22T01:00:09.165Z,10.00
2019-02-22T01:02:35.789Z,9.90
2019-02-22T01:05:02.457Z,10.00
2019-02-22T01:07:29.089Z,9.80
2019-02-22T01:09:55.872Z,9.80
2019-02-22T01:12:22.533Z,9.80
2019-02-22T01:14:49.228Z,9.80
2019-02-22T01:17:15.855Z,10.00
2019-02-22T01:19:42.592Z,9.80
2019-02-22T01:22:09.365Z,9.70
2019-02-22T01:24:36.012Z,9.70
2019-02-22T01:27:02.688Z,9.70
2019-02-22T01:29:29.333Z,9.80
2019-02-22T01:31:56.085Z,9.60
2019-02-22T01:34:22.761Z,9.90
2019-02-22T01:36:49.569Z,10.00
2019-02-22T01:39:16.272Z,9.80
2019-02-22T01:41:42.910Z,9.70
2019-02-22T01:44:20.945Z,9.70
2019-02-22T01:46:47.588Z,9.60
2019-02-22T01:49:14.278Z,9.70
2019-02-22T01:51:40.935Z,9.80
2019-02-22T01:54:07.637Z,9.80
2019-02-22T01:56:34.409Z,9.60
2019-02-22T01:59:01.102Z,9.60
2019-02-22T02:01:27.778Z,9.60
2019-02-22T02:03:54.442Z,9.50
2019-02-22T02:06:21.104Z,9.40
2019-02-22T02:11:23.077Z,9.60
2019-02-22T02:13:49.745Z,9.70
2019-02-22T02:16:16.419Z,9.40
2019-02-22T02:18:43.171Z,9.40
2019-02-22T02:21:09.829Z,9.40
2019-02-22T02:23:36.477Z,9.40
2019-02-22T02:26:03.291Z,9.60
2019-02-22T02:28:29.910Z,9.60
2019-02-22T02:30:56.614Z,9.70
2019-02-22T02:33:23.230Z,9.80
2019-02-22T02:35:50.069Z,9.60
2019-02-22T02:38:16.709Z,9.60
2019-02-22T02:40:43.386Z,9.40
2019-02-22T02:43:10.023Z,9.40
2019-02-22T02:45:36.727Z,9.40
2019-02-22T02:48:03.330Z,9.50
2019-02-22T02:50:30.192Z,9.60
2019-02-22T02:52:56.942Z,9.70
2019-02-22T02:55:29.203Z,9.80
2019-02-22T02:57:55.942Z,9.50
2019-02-22T03:00:22.569Z,9.60
2019-02-22T03:02:49.262Z,9.70
2019-02-22T03:05:15.990Z,9.60
2019-02-22T03:07:44.080Z,9.70
2019-02-22T03:10:10.790Z,9.60
2019-02-22T03:12:37.499Z,9.60
2019-02-22T03:15:06.437Z,9.60
2019-02-22T03:17:33.122Z,9.40
2019-02-22T03:19:59.745Z,9.40
2019-02-22T03:22:26.440Z,9.40
2019-02-22T03:24:53.750Z,9.30
2019-02-22T03:27:20.482Z,9.20
2019-02-22T03:29:47.097Z,9.30
2019-02-22T03:32:13.873Z,9.50
2019-02-22T03:34:40.534Z,9.70
2019-02-22T03:37:07.367Z,9.70
2019-02-22T03:39:34.083Z,9.60
2019-02-22T03:42:00.947Z,9.50
2019-02-22T03:44:27.792Z,9.30
2019-02-22T03:46:54.425Z,9.20
2019-02-22T03:49:21.051Z,9.10
2019-02-22T03:51:47.742Z,9.20
2019-02-22T03:54:14.413Z,9.40
2019-02-22T03:56:41.201Z,9.40
2019-02-22T03:59:07.891Z,9.40
2019-02-22T04:01:34.767Z,9.30
2019-02-22T04:04:01.414Z,9.30
2019-02-22T04:06:28.069Z,9.50
2019-02-22T04:08:54.720Z,9.50
2019-02-22T04:11:23.286Z,9.50
2019-02-22T04:13:49.937Z,9.40
2019-02-22T04:16:16.622Z,9.50
2019-02-22T04:18:44.502Z,9.50
2019-02-22T04:21:11.169Z,9.60
2019-02-22T04:23:37.916Z,9.60
2019-02-22T04:26:05.550Z,9.40
2019-02-22T04:28:32.227Z,9.40
2019-02-22T04:30:58.885Z,9.60
2019-02-22T04:33:25.542Z,9.30
2019-02-22T04:35:52.245Z,9.40
2019-02-22T04:38:19.013Z,9.40
2019-02-22T04:40:45.682Z,9.20
2019-02-22T04:43:12.442Z,9.30
2019-02-22T04:45:39.097Z,9.20
2019-02-22T04:48:05.838Z,9.30
2019-02-22T04:50:32.632Z,9.20
2019-02-22T04:52:59.587Z,9.10
2019-02-22T04:55:26.242Z,9.30
2019-02-22T04:57:52.900Z,9.40
2019-02-22T05:00:19.531Z,9.10
2019-02-22T05:02:46.354Z,9.10
2019-02-22T05:05:12.997Z,9.10
2019-02-22T05:07:39.836Z,9.00
2019-02-22T05:10:06.570Z,8.90
2019-02-22T05:12:33.260Z,8.90
2019-02-22T05:15:11.415Z,8.90
2019-02-22T05:17:28.505Z,8.80
2019-02-22T05:19:55.290Z,8.90
2019-02-22T05:22:21.944Z,9.00
2019-02-22T05:24:48.616Z,9.20
2019-02-22T05:27:15.377Z,9.20
2019-02-22T05:29:42.145Z,8.90
2019-02-22T05:32:08.878Z,9.10
2019-02-22T05:34:35.651Z,9.00
2019-02-22T05:37:02.306Z,9.10
2019-02-22T05:39:29.000Z,9.10
2019-02-22T05:41:55.887Z,9.00
2019-02-22T05:44:22.583Z,9.10
2019-02-22T05:47:00.022Z,9.00
2019-02-22T05:49:17.686Z,9.10
2019-02-22T05:51:44.335Z,9.20
2019-02-22T05:54:11.035Z,9.10
2019-02-22T05:56:37.716Z,9.00
2019-02-22T05:59:04.347Z,9.10
2019-02-22T06:01:31.114Z,9.10
2019-02-22T06:03:57.749Z,9.10
2019-02-22T06:06:24.463Z,9.00
2019-02-22T06:08:51.230Z,8.90
2019-02-22T06:11:17.861Z,9.30
2019-02-22T06:13:44.577Z,9.10
2019-02-22T06:16:11.228Z,9.10
2019-02-22T06:18:37.882Z,9.00
2019-02-22T06:21:04.548Z,9.20
2019-02-22T06:23:31.287Z,9.10
2019-02-22T06:25:57.937Z,9.00
2019-02-22T06:28:24.562Z,9.10
2019-02-22T06:30:51.257Z,9.30
2019-02-22T06:33:17.906Z,9.30
2019-02-22T06:35:44.604Z,9.10
2019-02-22T06:38:11.236Z,9.20
2019-02-22T06:40:38.040Z,9.30
2019-02-22T06:43:04.737Z,9.40
2019-02-22T06:45:31.366Z,9.30
2019-02-22T06:47:58.045Z,9.40
2019-02-22T06:50:33.660Z,9.20
2019-02-22T06:52:53.164Z,9.00
2019-02-22T06:55:19.820Z,9.10
2019-02-22T06:57:46.577Z,9.20
2019-02-22T07:00:13.250Z,9.00
2019-02-22T07:02:40.429Z,9.10
2019-02-22T07:05:07.090Z,9.20
2019-02-22T07:07:33.761Z,9.30
2019-02-22T07:10:00.393Z,9.30
2019-02-22T07:12:31.829Z,9.40
2019-02-22T07:14:58.534Z,9.40
2019-02-22T07:17:25.201Z,9.40
2019-02-22T07:19:51.885Z,9.50
2019-02-22T07:22:18.618Z,9.60
2019-02-22T07:24:45.286Z,9.50
2019-02-22T07:27:12.043Z,9.50
2019-02-22T07:29:38.663Z,9.50
2019-02-22T07:32:06.450Z,9.50
2019-02-22T07:34:33.265Z,9.50
2019-02-22T07:36:59.957Z,9.40
2019-02-22T07:39:28.113Z,9.60
2019-02-22T07:41:55.021Z,9.70
2019-02-22T07:44:21.712Z,9.70
2019-02-22T07:46:48.453Z,9.50
2019-02-22T07:49:23.157Z,9.70
2019-02-22T07:51:49.915Z,9.60
2019-02-22T07:54:16.568Z,9.50
2019-02-22T07:56:43.213Z,9.40
2019-02-22T07:59:09.887Z,9.50
2019-02-22T08:01:46.851Z,9.60
2019-02-22T08:04:04.986Z,9.60
2019-02-22T08:06:31.771Z,9.50
2019-02-22T08:08:58.521Z,9.40
2019-02-22T08:11:25.180Z,9.50
2019-02-22T08:13:51.866Z,9.50
2019-02-22T08:16:18.535Z,9.60
2019-02-22T08:18:45.277Z,9.60
2019-02-22T08:21:11.998Z,9.70
2019-02-22T08:23:38.601Z,9.60
2019-02-22T08:26:05.233Z,9.60
2019-02-22T08:28:32.007Z,9.50
2019-02-22T08:30:58.663Z,9.40
2019-02-22T08:33:25.364Z,9.40
2019-02-22T08:35:51.993Z,9.30
2019-02-22T08:38:18.765Z,9.50
2019-02-22T08:40:45.505Z,9.60
2019-02-22T08:43:12.175Z,9.70
2019-02-22T08:45:38.862Z,9.60
2019-02-22T08:48:05.494Z,9.70
2019-02-22T08:50:32.165Z,9.70
2019-02-22T08:52:58.806Z,9.60
2019-02-22T08:55:25.468Z,9.80
2019-02-22T08:57:52.121Z,9.80
2019-02-22T09:00:18.997Z,9.90
2019-02-22T09:02:45.623Z,9.70
2019-02-22T09:05:12.400Z,9.50
2019-02-22T09:07:39.145Z,9.60
2019-02-22T09:10:08.897Z,9.60
2019-02-22T09:12:35.569Z,9.50
2019-02-22T09:15:34.191Z,9.70
2019-02-22T09:17:59.895Z,9.70
2019-02-22T09:20:26.574Z,9.70
2019-02-22T09:22:53.246Z,9.60
2019-02-22T09:25:19.882Z,9.60
2019-02-22T09:27:46.571Z,9.60
2019-02-22T09:30:15.104Z,9.60
2019-02-22T09:32:41.830Z,9.70
2019-02-22T09:35:09.883Z,9.80
2019-02-22T09:37:36.730Z,9.60
2019-02-22T09:40:06.559Z,9.40
2019-02-22T09:42:33.233Z,9.40
2019-02-22T09:44:59.862Z,9.50
2019-02-22T09:47:26.558Z,9.50
2019-02-22T09:49:53.285Z,9.50
2019-02-22T09:52:19.962Z,9.50
2019-02-22T09:54:46.635Z,9.40
2019-02-22T09:57:13.402Z,9.50
2019-02-22T09:59:40.057Z,9.40
2019-02-22T10:02:06.741Z,9.60
2019-02-22T10:04:33.408Z,9.50
2019-02-22T10:07:00.062Z,9.30
2019-02-22T10:09:26.746Z,9.60
2019-02-22T10:11:53.365Z,9.40
2019-02-22T10:14:20.035Z,9.60
2019-02-22T10:16:47.114Z,9.70
2019-02-22T10:19:13.927Z,9.60
2019-02-22T10:21:40.649Z,9.80
2019-02-22T10:24:07.349Z,9.80
2019-02-22T10:26:34.002Z,10.10
2019-02-22T10:29:00.821Z,10.00
2019-02-22T10:31:27.449Z,9.60
2019-02-22T10:33:54.137Z,9.50
2019-02-22T10:36:20.826Z,9.60
2019-02-22T10:38:47.509Z,9.50
2019-02-22T10:41:14.130Z,9.50
2019-02-22T10:43:40.805Z,9.30
2019-02-22T10:46:07.474Z,9.20
2019-02-22T10:48:34.106Z,9.10
2019-02-22T10:51:00.785Z,9.00
2019-02-22T10:53:27.543Z,9.10
2019-02-22T10:55:54.196Z,9.30
2019-02-22T10:58:20.845Z,9.20
2019-02-22T11:00:47.515Z,9.20
2019-02-22T11:03:14.157Z,9.30
2019-02-22T11:05:40.827Z,9.30
2019-02-22T11:08:07.539Z,9.40
2019-02-22T11:10:34.182Z,9.30
2019-02-22T11:13:00.818Z,9.40
2019-02-22T11:15:27.626Z,9.40
2019-02-22T11:17:54.269Z,9.60
2019-02-22T11:20:20.904Z,9.60
2019-02-22T11:22:47.649Z,9.70
2019-02-22T11:25:15.537Z,9.90
2019-02-22T11:27:42.330Z,9.60
2019-02-22T11:30:11.199Z,9.70
2019-02-22T11:32:37.852Z,9.40
2019-02-22T11:35:06.010Z,9.60
2019-02-22T11:37:32.638Z,9.40
2019-02-22T11:39:59.307Z,9.60
2019-02-22T11:42:25.926Z,9.70
2019-02-22T11:44:52.606Z,9.70
2019-02-22T11:47:19.230Z,9.70
2019-02-22T11:49:45.905Z,9.70
2019-02-22T11:52:12.538Z,9.70
2019-02-22T11:54:39.234Z,9.70
2019-02-22T11:57:06.162Z,9.70
2019-02-22T11:59:32.856Z,9.80
2019-02-22T12:01:59.607Z,10.00
2019-02-22T12:04:26.289Z,10.10
2019-02-22T12:06:52.920Z,9.80
2019-02-22T12:09:19.612Z,9.80
2019-02-22T12:11:46.273Z,9.90
2019-02-22T12:14:13.097Z,10.00
2019-02-22T12:16:39.899Z,10.10
2019-02-22T12:19:06.633Z,10.20
2019-02-22T12:21:33.421Z,10.20
2019-02-22T12:24:00.118Z,10.20
2019-02-22T12:26:26.774Z,10.30
2019-02-22T12:28:53.431Z,10.30
2019-02-22T12:31:20.108Z,10.30
2019-02-22T12:33:46.745Z,10.40
2019-02-22T12:36:13.441Z,10.40
2019-02-22T12:38:40.181Z,10.40
2019-02-22T12:41:06.837Z,10.30
2019-02-22T12:43:33.498Z,10.50
2019-02-22T12:46:00.270Z,10.20
2019-02-22T12:48:26.899Z,10.10
2019-02-22T12:50:53.574Z,10.20
2019-02-22T12:53:20.206Z,10.20
2019-02-22T12:55:47.059Z,10.30
2019-02-22T12:58:13.728Z,10.30
2019-02-22T13:00:40.405Z,10.30
2019-02-22T13:03:07.157Z,10.30
2019-02-22T13:05:33.825Z,10.30
2019-02-22T13:08:00.516Z,10.20
2019-02-22T13:10:27.150Z,10.20
2019-02-22T13:12:53.816Z,10.20
2019-02-22T13:15:20.668Z,10.40
2019-02-22T13:17:47.304Z,10.30
2019-02-22T13:20:14.130Z,10.30
2019-02-22T13:22:41.101Z,10.40
2019-02-22T13:25:09.520Z,10.20
2019-02-22T13:27:36.403Z,10.30
2019-02-22T13:30:14.733Z,10.50
2019-02-22T13:32:41.578Z,10.50
2019-02-22T13:35:11.055Z,10.30
2019-02-22T13:37:37.664Z,10.60
2019-02-22T13:40:08.111Z,10.50
2019-02-22T13:42:34.843Z,10.50
2019-02-22T13:45:01.629Z,10.20
2019-02-22T13:47:28.477Z,10.30
2019-02-22T13:49:55.278Z,10.40
2019-02-22T13:52:21.970Z,10.50
2019-02-22T13:54:48.657Z,10.30
2019-02-22T13:57:15.429Z,10.00
2019-02-22T13:59:42.394Z,9.90
2019-02-22T14:02:09.202Z,9.70
2019-02-22T14:04:35.959Z,9.50
2019-02-22T14:07:02.745Z,9.60
2019-02-22T14:09:30.023Z,9.60
2019-02-22T14:11:56.958Z,9.60
2019-02-22T14:14:23.641Z,9.70
2019-02-22T14:16:50.552Z,9.60
2019-02-22T14:19:17.335Z,9.60
2019-02-22T14:21:43.962Z,9.70
2019-02-22T14:24:10.646Z,9.70
2019-02-22T14:26:37.273Z,9.60
2019-02-22T14:29:03.941Z,9.60
2019-02-22T14:31:30.580Z,9.60
2019-02-22T14:33:57.267Z,9.70
2019-02-22T14:36:43.773Z,9.60
2019-02-22T14:39:10.798Z,9.50
2019-02-22T14:41:37.624Z,9.70
2019-02-22T14:44:04.413Z,9.60
2019-02-22T14:46:31.031Z,9.40
2019-02-22T14:48:57.693Z,9.40
2019-02-22T14:51:24.360Z,9.50
2019-02-22T14:53:51.140Z,9.40
2019-02-22T14:56:17.749Z,9.40
2019-02-22T14:58:44.403Z,9.70
2019-02-22T15:01:11.181Z,9.70
2019-02-22T15:03:37.833Z,9.60
2019-02-22T15:06:04.602Z,9.50
2019-02-22T15:08:31.298Z,9.70
2019-02-22T15:10:57.992Z,9.80
2019-02-22T15:13:24.659Z,9.70
2019-02-22T15:16:01.811Z,9.80
2019-02-22T15:18:27.597Z,9.90
2019-02-22T15:20:54.336Z,9.80
2019-02-22T15:23:21.133Z,10.00
2019-02-22T15:25:47.913Z,10.00
2019-02-22T15:28:14.541Z,10.10
2019-02-22T15:30:41.227Z,9.80
2019-02-22T15:33:07.972Z,9.80
2019-02-22T15:35:34.824Z,9.70
2019-02-22T15:38:01.506Z,9.90
2019-02-22T15:40:28.218Z,9.90
2019-02-22T15:42:55.052Z,9.90
2019-02-22T15:45:21.720Z,9.90
2019-02-22T15:47:49.039Z,10.00
2019-02-22T15:50:17.048Z,10.00
2019-02-22T15:52:44.313Z,10.10
2019-02-22T15:55:14.445Z,9.80
2019-02-22T15:57:41.381Z,9.80
2019-02-22T16:00:23.496Z,9.80
2019-02-22T16:02:50.145Z,9.60
2019-02-22T16:05:18.688Z,9.80
2019-02-22T16:07:45.353Z,9.40
2019-02-22T16:10:12.182Z,9.50
2019-02-22T16:12:38.981Z,9.30
2019-02-22T16:15:08.118Z,9.30
2019-02-22T16:17:34.806Z,9.30
2019-02-22T16:20:01.604Z,9.20
2019-02-22T16:22:28.393Z,9.00
2019-02-22T16:24:55.046Z,9.10
2019-02-22T16:27:21.664Z,9.10
2019-02-22T16:29:48.328Z,9.30
2019-02-22T16:32:15.093Z,9.30
2019-02-22T16:34:43.796Z,9.00
2019-02-22T16:37:10.505Z,8.90
2019-02-22T16:39:37.203Z,9.10
2019-02-22T16:42:03.859Z,9.40
2019-02-22T16:44:30.713Z,9.30
2019-02-22T16:46:57.799Z,9.00
2019-02-22T16:49:24.765Z,9.10
2019-02-22T16:51:51.410Z,9.30
2019-02-22T16:54:18.142Z,9.30
2019-02-22T16:56:44.778Z,9.40
2019-02-22T16:59:11.451Z,9.40
2019-02-22T17:01:38.394Z,9.30
2019-02-22T17:04:05.170Z,9.20
2019-02-22T17:06:31.813Z,9.10
2019-02-22T17:08:58.481Z,9.10
2019-02-22T17:11:25.218Z,9.10
2019-02-22T17:13:51.927Z,9.00
2019-02-22T17:16:18.561Z,8.90
2019-02-22T17:18:45.409Z,8.60
2019-02-22T17:21:13.157Z,8.80
2019-02-22T17:23:39.725Z,9.00
2019-02-22T17:26:08.489Z,8.50
2019-02-22T17:28:35.189Z,8.40
2019-02-22T17:31:01.985Z,8.40
2019-02-22T17:33:28.573Z,8.50
2019-02-22T17:35:55.351Z,8.50
2019-02-22T17:38:22.041Z,8.20
2019-02-22T17:40:48.701Z,8.50
2019-02-22T17:43:15.325Z,8.20
2019-02-22T17:45:42.121Z,8.30
2019-02-22T17:48:08.752Z,8.10
2019-02-22T17:50:35.432Z,8.20
2019-02-22T17:53:02.091Z,8.40
2019-02-22T17:55:28.803Z,8.50
2019-02-22T17:57:55.817Z,8.50
2019-02-22T18:00:24.400Z,8.70
2019-02-22T18:02:51.201Z,8.40
2019-02-22T18:05:17.932Z,8.50
2019-02-22T18:07:44.673Z,8.30
2019-02-22T18:10:11.409Z,8.50
2019-02-22T18:12:38.205Z,8.50
2019-02-22T18:15:09.769Z,8.10
2019-02-22T18:17:36.651Z,8.20
2019-02-22T18:20:05.985Z,8.20
2019-02-22T18:22:32.625Z,8.20
2019-02-22T18:24:59.320Z,8.10
2019-02-22T18:27:25.960Z,8.30
2019-02-22T18:29:52.637Z,7.90
2019-02-22T18:32:19.491Z,7.90
2019-02-22T18:34:47.051Z,7.70
2019-02-22T18:37:13.691Z,7.70
2019-02-22T18:39:40.351Z,8.30
2019-02-22T18:42:07.108Z,8.00
2019-02-22T18:44:33.797Z,8.00
2019-02-22T18:47:00.519Z,7.70
2019-02-22T18:49:27.201Z,7.80
2019-02-22T18:51:53.865Z,7.50
2019-02-22T18:54:20.572Z,7.50
2019-02-22T18:56:47.234Z,7.60
2019-02-22T18:59:13.893Z,7.80
2019-02-22T19:01:40.653Z,7.70
2019-02-22T19:04:07.324Z,8.00
2019-02-22T19:06:34.103Z,7.90
2019-02-22T19:09:00.987Z,7.90
2019-02-22T19:11:27.639Z,7.90
2019-02-22T19:13:54.322Z,7.70
2019-02-22T19:16:21.015Z,7.70
2019-02-22T19:18:47.721Z,8.00
2019-02-22T19:21:14.454Z,7.90
2019-02-22T19:23:41.106Z,7.50
2019-02-22T19:26:07.798Z,7.50
2019-02-22T19:28:34.534Z,7.80
2019-02-22T19:31:01.220Z,7.80
2019-02-22T19:33:27.836Z,8.00
2019-02-22T19:35:54.535Z,7.80
2019-02-22T19:38:21.190Z,7.80
2019-02-22T19:40:48.211Z,7.70
2019-02-22T19:43:14.982Z,7.70
2019-02-22T19:45:41.749Z,7.70
2019-02-22T19:48:08.377Z,7.60
2019-02-22T19:50:41.332Z,7.50
2019-02-22T19:53:03.706Z,7.40
2019-02-22T19:55:30.477Z,7.20
2019-02-22T19:57:57.240Z,7.30
2019-02-22T20:00:23.917Z,7.10
2019-02-22T20:02:51.536Z,7.10
2019-02-22T20:05:18.150Z,6.90
2019-02-22T20:07:44.841Z,6.90
2019-02-22T20:10:18.523Z,7.00
2019-02-22T20:12:45.428Z,7.10
2019-02-22T20:15:13.955Z,7.30
2019-02-22T20:17:40.641Z,7.40
2019-02-22T20:20:10.597Z,7.20
2019-02-22T20:22:37.373Z,7.30
2019-02-22T20:25:04.777Z,7.30
2019-02-22T20:27:32.551Z,7.10
2019-02-22T20:29:59.250Z,7.30
2019-02-22T20:32:25.875Z,7.50
2019-02-22T20:34:52.582Z,7.50
2019-02-22T20:37:19.335Z,7.60
2019-02-22T20:39:47.575Z,7.30
2019-02-22T20:42:14.834Z,7.10
2019-02-22T20:44:43.326Z,7.30
2019-02-22T20:47:10.908Z,7.40
2019-02-22T20:49:39.560Z,7.30
2019-02-22T20:52:06.812Z,7.30
2019-02-22T20:54:34.063Z,7.10
2019-02-22T20:57:01.930Z,7.10
2019-02-22T20:59:30.000Z,7.20
2019-02-22T21:01:59.916Z,6.90
2019-02-22T21:04:26.581Z,7.10
2019-02-22T21:06:53.265Z,7.20
2019-02-22T21:09:20.031Z,7.20
2019-02-22T21:11:46.717Z,6.80
2019-02-22T21:14:13.394Z,6.70
2019-02-22T21:16:40.085Z,6.90
2019-02-22T21:19:06.828Z,6.90
2019-02-22T21:21:33.936Z,6.70
2019-02-22T21:24:00.599Z,6.80
2019-02-22T21:26:27.368Z,7.10
2019-02-22T21:28:54.134Z,7.00
2019-02-22T21:31:20.792Z,7.10
2019-02-22T21:33:48.659Z,7.10
2019-02-22T21:36:15.606Z,7.10
2019-02-22T21:38:42.208Z,7.00
2019-02-22T21:41:09.232Z,6.40
2019-02-22T21:43:35.894Z,6.70
2019-02-22T21:46:02.530Z,6.40
2019-02-22T21:48:29.210Z,6.40
2019-02-22T21:50:55.843Z,6.50
2019-02-22T21:53:25.110Z,6.70
2019-02-22T21:55:51.008Z,6.70
2019-02-22T21:58:17.725Z,6.50
2019-02-22T22:00:44.461Z,6.50
2019-02-22T22:03:11.145Z,6.30
2019-02-22T22:05:37.899Z,6.50
2019-02-22T22:08:04.689Z,6.50
2019-02-22T22:10:31.352Z,6.10
2019-02-22T22:12:58.169Z,6.40
2019-02-22T22:15:24.904Z,6.00
2019-02-22T22:17:51.581Z,6.10
2019-02-22T22:20:18.253Z,6.40
2019-02-22T22:22:44.892Z,6.30
2019-02-22T22:25:12.957Z,6.40
2019-02-22T22:27:39.710Z,6.20
2019-02-22T22:30:09.066Z,6.40
2019-02-22T22:32:35.809Z,6.00
2019-02-22T22:35:02.489Z,6.20
2019-02-22T22:37:29.233Z,6.10
2019-02-22T22:39:55.959Z,6.30
2019-02-22T22:42:22.768Z,6.20
2019-02-22T22:44:49.549Z,5.90
2019-02-22T22:47:16.221Z,6.00
2019-02-22T22:49:43.844Z,6.00
2019-02-22T22:52:10.649Z,5.80
2019-02-22T22:54:37.401Z,5.80
2019-02-22T22:57:04.078Z,5.50
2019-02-22T22:59:30.713Z,5.90
2019-02-22T23:01:57.510Z,5.60
2019-02-22T23:04:24.173Z,6.00
2019-02-22T23:06:50.822Z,5.80
2019-02-22T23:09:18.741Z,6.00
2019-02-22T23:11:45.533Z,5.80
2019-02-22T23:14:12.317Z,5.90
2019-02-22T23:16:39.006Z,5.20
2019-02-22T23:19:05.734Z,5.10
2019-02-22T23:21:32.513Z,5.20
2019-02-22T23:23:59.321Z,5.40
2019-02-22T23:26:25.953Z,5.60
2019-02-22T23:28:52.632Z,5.50
2019-02-22T23:31:19.383Z,5.60
2019-02-22T23:33:46.158Z,5.40
2019-02-22T23:36:13.111Z,5.30
2019-02-22T23:38:39.791Z,5.30
2019-02-22T23:41:06.566Z,4.90
2019-02-22T23:43:33.258Z,5.30
2019-02-22T23:46:00.072Z,5.20
2019-02-22T23:48:26.803Z,5.30
2019-02-22T23:50:53.499Z,5.00
2019-02-22T23:53:20.137Z,4.80
2019-02-22T23:55:46.915Z,5.20
2019-02-22T23:58:13.543Z,5.40
